Milford, IA (51351)

9:28 PM CDT on September 04, 2015 (GMT -0500)
Little Sioux Orchard | | Change Station
CLOSE
Current Station
Personal Weather Station
Location: Milford, IA
Elevation: 1453 ft
Nearby Weather Stations

Elev 1453 ft 43.27 °N, 95.26 °W | Updated 3 seconds ago

Partly Cloudy
Partly Cloudy
76.2 °F
Feels Like 77 °F
N
5.0
Wind Variable Wind from SSE
Gusts 8.0 mph

Today
High -- | Low -- °F
--% Chance of Precip.
Yesterday
High -- | Low -- °F
Precip. -- in
6:47 AM 7:50 PM
Waning Gibbous, 53% visible
Pressure 29.94 in
Visibility 0.8 miles
Clouds Clear
Heat Index 77 °F
Dew Point 73 °F
Humidity 89%
Rainfall 0.00 in
Snow Depth Not available.
UV 0 out of 12
Pollen 9.80 out of 12
Air Quality Not available.
Flu Activity Not available.
SPECI KSPW 050225Z AUTO 13010KT 3/4SM HZ CLR 26/22 A2994 RMK AO2 T02560217 $
Pressure 29.94 in
Visibility 0.8 miles
Clouds Clear
Heat Index 77 °F
Dew Point 73 °F
Humidity 89%
Rainfall 0.00 in
Snow Depth Not available.
UV 0 out of 12
Pollen 9.80 out of 12
Air Quality Not available.
Flu Activity Not available.
SPECI KSPW 050225Z AUTO 13010KT 3/4SM HZ CLR 26/22 A2994 RMK AO2 T02560217 $

10-Day Weather Forecast

×

Almanac

Astronomy

Sep. 04, 2015 Rise Set
Actual Time
Civil Twilight
Nautical Twilight
Astronomical Twilight
Moon
Length of Visible Light
Length of Day
Tomorrow will be .
, % of the Moon is Illuminated

Today's Extremes

State Highs State Lows

Community

WunderPhotos

Upload Photos

1,852,391 photos uploaded!

WunderBlogs® & News

Nearby

Air Quality

  Air Quality AQ Index Pollutant
Not available.

Snow Depth

Station Depth Elevation

Earthquake Activity

City Distance Mag. Time & Date
Minimum magnitude displayed is 2.5.

Coastal Water Temperatures

Place Temperature

Stations

Nearby Weather Stations

Station Location Temp. Windchill Dew Point Humidity Wind Precip. Elev Updated Type